createdAt,value
2023-01-17T00:02:22.565Z,5.66
2023-01-17T00:17:22.814Z,6.37
2023-01-17T00:32:22.637Z,5.07
2023-01-17T00:47:22.630Z,6.67
2023-01-17T01:02:22.728Z,6.63
2023-01-17T01:17:22.856Z,7.23
2023-01-17T01:32:22.779Z,5.74
2023-01-17T01:47:22.949Z,5.92
2023-01-17T02:02:23.168Z,7.95
2023-01-17T02:17:22.951Z,8.17
2023-01-17T02:32:22.895Z,7.11
2023-01-17T02:47:25.320Z,5.51
2023-01-17T03:02:23.144Z,4.38
2023-01-17T03:17:26.964Z,5.29
2023-01-17T03:32:23.100Z,5.52
2023-01-17T03:47:23.329Z,5.42
2023-01-17T04:02:23.184Z,5.04
2023-01-17T04:17:23.425Z,4.47
2023-01-17T04:32:23.299Z,5.05
2023-01-17T04:47:24.754Z,5.52
2023-01-17T05:02:23.302Z,5.02
2023-01-17T05:17:23.208Z,4.85
2023-01-17T05:32:23.239Z,3.72
2023-01-17T05:47:23.497Z,3.49
2023-01-17T06:02:24.005Z,4.85
2023-01-17T06:17:23.499Z,3.57
2023-01-17T06:32:27.448Z,3.74
2023-01-17T06:47:23.327Z,3.23
2023-01-17T07:02:23.451Z,3.12
2023-01-17T07:17:23.635Z,3.53
2023-01-17T07:32:23.463Z,3.70
2023-01-17T07:47:27.833Z,2.85
2023-01-17T08:02:23.924Z,3.12
2023-01-17T08:17:23.815Z,1.83
2023-01-17T08:32:23.877Z,1.60
2023-01-17T08:47:23.888Z,1.29
2023-01-17T09:02:23.860Z,1.11
2023-01-17T09:17:23.940Z,1.14
2023-01-17T09:32:23.926Z,1.29
2023-01-17T09:47:23.778Z,1.23
2023-01-17T10:02:26.325Z,1.78
2023-01-17T10:17:24.051Z,1.84
2023-01-17T10:32:23.992Z,1.77
2023-01-17T10:47:24.109Z,2.04
2023-01-17T11:02:24.222Z,1.84
2023-01-17T11:17:24.137Z,1.31
2023-01-17T11:32:24.141Z,1.22
2023-01-17T11:47:24.282Z,1.41
2023-01-17T12:02:24.230Z,1.63
2023-01-17T12:17:24.613Z,1.97
2023-01-17T12:32:24.388Z,1.17
2023-01-17T12:47:24.506Z,1.18
2023-01-17T13:02:24.403Z,1.11
2023-01-17T13:17:24.417Z,1.99
2023-01-17T13:32:24.494Z,1.79
2023-01-17T13:47:24.555Z,1.05
2023-01-17T14:02:24.477Z,1.02
2023-01-17T14:17:24.500Z,0.24
2023-01-17T14:32:24.602Z,0.08
2023-01-17T14:47:24.613Z,0.11
2023-01-17T15:02:24.934Z,0.02
2023-01-17T15:17:25.772Z,0.05
2023-01-17T15:32:24.778Z,0.18
2023-01-17T15:47:24.699Z,0.13
2023-01-17T16:02:24.760Z,0.00
2023-01-17T16:17:24.869Z,0.27
2023-01-17T16:32:24.779Z,0.00
2023-01-17T16:47:24.857Z,0.00
2023-01-17T17:02:24.891Z,0.03
2023-01-17T17:17:25.047Z,0.06
2023-01-17T17:32:25.074Z,0.00
2023-01-17T17:47:24.941Z,0.00
2023-01-17T18:02:25.093Z,0.13
2023-01-17T18:17:25.008Z,0.00
2023-01-17T18:32:25.335Z,0.00
2023-01-17T18:47:25.118Z,0.08
2023-01-17T19:02:25.038Z,0.00
2023-01-17T19:17:25.313Z,0.05
2023-01-17T19:32:25.266Z,0.00
2023-01-17T19:47:25.491Z,0.08
2023-01-17T20:02:25.333Z,0.00
2023-01-17T20:17:25.054Z,0.00
2023-01-17T20:32:25.169Z,0.00
2023-01-17T20:47:25.418Z,0.00
2023-01-17T21:02:25.367Z,0.05
2023-01-17T21:17:25.562Z,0.03
2023-01-17T21:32:25.392Z,0.15
2023-01-17T21:47:25.412Z,0.00
2023-01-17T22:02:25.463Z,0.06
2023-01-17T22:17:25.407Z,0.00
2023-01-17T22:32:25.890Z,0.00
2023-01-17T22:47:25.708Z,0.00
2023-01-17T23:02:25.356Z,0.03
2023-01-17T23:17:25.542Z,0.67
2023-01-17T23:32:25.560Z,0.22
2023-01-17T23:47:27.139Z,0.00
